TAF KBYI
KBYI 072334Z 0800/0824 25008KT P6SM SCT040 BKN200 FM081800 24010G17KT P6SM SCT250=
METAR KBYI
WC KBYI
WS KBYI
WV KBYI